createdAt,value
2023-02-22T00:02:30.245Z,9.70
2023-02-22T00:12:31.083Z,9.66
2023-02-22T00:22:31.922Z,9.65
2023-02-22T00:32:32.782Z,9.70
2023-02-22T00:42:33.581Z,9.68
2023-02-22T00:52:34.390Z,9.84
2023-02-22T01:02:35.268Z,9.89
2023-02-22T01:12:36.072Z,10.03
2023-02-22T01:22:36.847Z,10.17
2023-02-22T01:32:37.704Z,10.16
2023-02-22T01:42:38.552Z,10.26
2023-02-22T01:52:39.462Z,10.29
2023-02-22T02:02:40.333Z,10.30
2023-02-22T02:22:42.043Z,10.17
2023-02-22T02:32:43.003Z,9.88
2023-02-22T02:42:43.881Z,9.82
2023-02-22T02:52:44.724Z,9.71
2023-02-22T03:02:45.502Z,9.69
2023-02-22T03:12:46.259Z,9.24
2023-02-22T03:32:47.832Z,8.92
2023-02-22T03:42:48.602Z,9.12
2023-02-22T03:52:49.352Z,9.01
2023-02-22T04:02:50.142Z,8.92
2023-02-22T04:12:50.931Z,8.95
2023-02-22T04:22:51.709Z,8.73
2023-02-22T04:32:52.509Z,8.86
2023-02-22T04:42:53.149Z,8.69
2023-02-22T04:52:53.884Z,8.49
2023-02-22T05:02:54.633Z,7.98
2023-02-22T05:12:55.189Z,8.13
2023-02-22T05:22:55.874Z,7.94
2023-02-22T05:32:56.487Z,7.87
2023-02-22T05:42:57.129Z,7.99
2023-02-22T05:52:57.802Z,7.48
2023-02-22T06:02:58.386Z,7.16
2023-02-22T06:12:58.992Z,7.47
2023-02-22T06:22:59.621Z,7.47
2023-02-22T06:33:00.252Z,7.71
2023-02-22T06:43:00.844Z,7.97
2023-02-22T06:53:01.509Z,8.26
2023-02-22T07:13:02.869Z,8.83
2023-02-22T07:23:03.581Z,9.13
2023-02-22T07:33:04.401Z,9.34
2023-02-22T07:43:06.973Z,9.63
2023-02-22T07:53:06.146Z,9.97
2023-02-22T08:03:06.752Z,10.61
2023-02-22T08:13:07.602Z,12.13
2023-02-22T08:23:08.587Z,13.99
2023-02-22T08:33:09.869Z,13.97
2023-02-22T08:43:11.202Z,14.11
2023-02-22T08:53:12.335Z,12.87
2023-02-22T09:03:13.520Z,12.57
2023-02-22T09:13:14.671Z,12.09
2023-02-22T09:23:15.789Z,12.42
2023-02-22T09:33:16.958Z,12.37
2023-02-22T09:43:17.849Z,12.51
2023-02-22T09:53:18.874Z,12.77
2023-02-22T10:03:21.356Z,13.37
2023-02-22T10:13:20.862Z,13.31
2023-02-22T10:23:21.853Z,13.16
2023-02-22T10:33:23.088Z,12.94
2023-02-22T10:43:23.956Z,12.72
2023-02-22T11:03:25.736Z,12.68
2023-02-22T11:13:26.682Z,12.76
2023-02-22T11:23:27.633Z,12.92
2023-02-22T11:33:28.506Z,12.96
2023-02-22T11:43:29.466Z,12.96
2023-02-22T11:53:30.320Z,12.99
2023-02-22T12:03:31.325Z,12.95
2023-02-22T12:13:32.343Z,12.94
2023-02-22T12:23:33.214Z,12.66
2023-02-22T12:33:34.162Z,12.38
2023-02-22T12:43:35.104Z,12.44
2023-02-22T12:53:35.991Z,12.37
2023-02-22T13:03:36.858Z,12.29
2023-02-22T13:13:37.750Z,12.37
2023-02-22T13:23:38.728Z,12.32
2023-02-22T13:33:39.544Z,12.42
2023-02-22T13:43:40.464Z,12.44
2023-02-22T13:53:41.278Z,12.43
2023-02-22T14:03:42.077Z,12.53
2023-02-22T14:13:42.920Z,12.49
2023-02-22T14:23:43.807Z,12.61
2023-02-22T14:33:44.701Z,12.53
2023-02-22T14:43:45.612Z,12.51
2023-02-22T14:53:46.492Z,12.60
2023-02-22T15:03:49.725Z,12.39
2023-02-22T15:13:48.468Z,12.22
2023-02-22T15:23:49.374Z,12.19
2023-02-22T15:33:50.368Z,12.08
2023-02-22T15:43:51.375Z,12.05
2023-02-22T15:53:52.287Z,11.89
2023-02-22T16:03:53.321Z,11.97
2023-02-22T16:13:54.211Z,11.83
2023-02-22T16:24:06.951Z,11.62
2023-02-22T16:33:56.336Z,11.48
2023-02-22T16:43:58.269Z,11.67
2023-02-22T16:53:58.088Z,11.59
2023-02-22T17:04:00.744Z,11.41
2023-02-22T17:13:59.981Z,11.41
2023-02-22T17:24:02.554Z,11.27
2023-02-22T17:34:01.699Z,10.93
2023-02-22T17:44:02.510Z,10.93
2023-02-22T17:54:03.318Z,11.07
2023-02-22T18:04:04.221Z,10.96
2023-02-22T18:14:05.349Z,10.84
2023-02-22T18:24:06.013Z,10.65
2023-02-22T18:34:07.106Z,10.53
2023-02-22T18:44:08.224Z,10.38
2023-02-22T18:54:10.665Z,10.18
2023-02-22T19:04:09.478Z,9.90
2023-02-22T19:14:10.552Z,9.80
2023-02-22T19:24:11.535Z,9.47
2023-02-22T19:34:11.939Z,9.64
2023-02-22T19:44:13.076Z,9.67
2023-02-22T19:54:15.539Z,9.67
2023-02-22T20:04:14.778Z,9.46
2023-02-22T20:14:17.148Z,9.51
2023-02-22T20:24:17.621Z,9.32
2023-02-22T20:34:17.443Z,9.38
2023-02-22T20:44:18.152Z,9.46
2023-02-22T20:54:18.393Z,9.13
2023-02-22T21:04:19.203Z,9.15
2023-02-22T21:14:20.625Z,9.25
2023-02-22T21:24:20.516Z,9.09
2023-02-22T21:44:21.813Z,9.04
2023-02-22T21:54:22.577Z,9.10
2023-02-22T22:04:23.180Z,9.06
2023-02-22T22:14:23.872Z,8.95
2023-02-22T22:24:24.612Z,8.95
2023-02-22T22:34:25.314Z,8.97
2023-02-22T22:44:26.003Z,8.69
2023-02-22T22:54:26.673Z,8.74
2023-02-22T23:04:27.342Z,8.73
2023-02-22T23:14:28.066Z,8.65
2023-02-22T23:24:28.815Z,8.58
2023-02-22T23:34:29.551Z,8.37
2023-02-22T23:44:30.243Z,8.35
2023-02-22T23:54:30.975Z,8.31
